Time;durP1;ratioP1;P1;durP2;ratioP2;P2;SDS_P1;SDS_P2;PMS_P1;PMS_P2;Temp;Humidity;BMP_temperature;BMP_pressure;BME280_temperature;BME280_humidity;BME280_pressure;Samples;Min_cycle;Max_cycle;Signal;HPM_P1;HPM_P2
2022/08/04 00:02:11;;;;;;;;;;;16.10;99.90;;;;;;5125448;27;19912;-58
2022/08/04 00:04:53;;;;;;;;;;;16.00;99.90;;;;;;5125847;27;19915;-58
2022/08/04 00:07:37;;;;;;;;;;;16.00;99.90;;;;;;5123328;27;20387;-58
2022/08/04 00:10:19;;;;;;;;;;;15.90;99.90;;;;;;5125612;27;19912;-58
2022/08/04 00:13:00;;;;;;;;;;;16.00;99.90;;;;;;5125866;27;20280;-58
2022/08/04 00:15:41;;;;;;;;;;;15.90;99.90;;;;;;5125583;27;19918;-58
2022/08/04 00:18:26;;;;;;;;;;;15.90;99.90;;;;;;5117356;27;20407;-58
2022/08/04 00:21:09;;;;;;;;;;;15.90;99.90;;;;;;5125596;27;19918;-58
2022/08/04 00:23:51;;;;;;;;;;;15.80;99.90;;;;;;5125942;27;19912;-58
2022/08/04 00:26:31;;;;;;;;;;;15.80;99.90;;;;;;5095358;27;19917;-58
2022/08/04 00:29:12;;;;;;;;;;;15.70;99.90;;;;;;5110254;27;19926;-58
2022/08/04 00:31:52;;;;;;;;;;;15.70;99.90;;;;;;5125240;27;19922;-57
2022/08/04 00:34:33;;;;;;;;;;;15.60;99.90;;;;;;5125443;27;19922;-58
2022/08/04 00:37:14;;;;;;;;;;;15.50;99.90;;;;;;5124651;27;19922;-58
2022/08/04 00:39:57;;;;;;;;;;;15.50;99.90;;;;;;5104829;27;19935;-58
2022/08/04 00:42:44;;;;;;;;;;;15.40;99.90;;;;;;5112068;27;20327;-58
2022/08/04 00:45:35;;;;;;;;;;;15.40;99.90;;;;;;5104089;27;19989;-58
2022/08/04 00:48:21;;;;;;;;;;;15.40;99.90;;;;;;5117792;27;19912;-58
2022/08/04 00:51:06;;;;;;;;;;;15.40;99.90;;;;;;5125971;27;19934;-58
2022/08/04 00:53:55;;;;;;;;;;;15.40;99.90;;;;;;5104869;27;20377;-58
2022/08/04 00:56:50;;;;;;;;;;;15.40;99.90;;;;;;5124360;27;19918;-55
2022/08/04 00:59:37;;;;;;;;;;;15.40;99.90;;;;;;5125806;27;19914;-58
2022/08/04 01:02:30;;;;;;;;;;;15.40;99.90;;;;;;5125872;27;19918;-58
2022/08/04 01:05:15;;;;;;;;;;;15.40;99.90;;;;;;5125764;27;19930;-57
2022/08/04 01:08:04;;;;;;;;;;;15.30;99.90;;;;;;5123946;27;19912;-58
2022/08/04 01:10:48;;;;;;;;;;;15.20;99.90;;;;;;5125594;27;19926;-58
2022/08/04 01:13:42;;;;;;;;;;;15.20;99.90;;;;;;5105179;27;20268;-58
2022/08/04 01:16:24;;;;;;;;;;;15.20;99.90;;;;;;5097782;27;19912;-58
2022/08/04 01:19:07;;;;;;;;;;;15.10;99.90;;;;;;5111024;27;19916;-58
2022/08/04 01:22:10;;;;;;;;;;;15.10;99.90;;;;;;5125954;27;20206;-58
2022/08/04 01:25:12;;;;;;;;;;;15.10;99.90;;;;;;5125313;27;19912;-58
2022/08/04 01:28:06;;;;;;;;;;;15.00;99.90;;;;;;5121015;27;20321;-58
2022/08/04 01:30:48;;;;;;;;;;;14.90;99.90;;;;;;5125537;27;20296;-58
2022/08/04 01:33:29;;;;;;;;;;;14.90;99.90;;;;;;5125438;27;19918;-58
2022/08/04 01:36:09;;;;;;;;;;;14.90;99.90;;;;;;5124612;27;19938;-58
2022/08/04 01:38:49;;;;;;;;;;;14.90;99.90;;;;;;5112494;27;19912;-58
2022/08/04 01:41:29;;;;;;;;;;;14.80;99.90;;;;;;5123292;27;19916;-58
2022/08/04 01:44:09;;;;;;;;;;;14.80;99.90;;;;;;5123616;27;19925;-58
2022/08/04 01:46:51;;;;;;;;;;;14.70;99.90;;;;;;5102524;27;19930;-58
2022/08/04 01:49:32;;;;;;;;;;;14.70;99.90;;;;;;5086377;27;19916;-58
2022/08/04 01:52:12;;;;;;;;;;;14.70;99.90;;;;;;5124486;27;19911;-58
2022/08/04 01:54:53;;;;;;;;;;;14.60;99.90;;;;;;5125614;27;19918;-58
2022/08/04 01:57:34;;;;;;;;;;;14.70;99.90;;;;;;5124514;27;19912;-57
2022/08/04 02:00:15;;;;;;;;;;;14.70;99.90;;;;;;5105228;27;19926;-58
2022/08/04 02:02:56;;;;;;;;;;;14.70;99.90;;;;;;5105041;27;19961;-58
2022/08/04 02:05:37;;;;;;;;;;;14.70;99.90;;;;;;5104809;27;19953;-58
2022/08/04 02:08:20;;;;;;;;;;;14.60;99.90;;;;;;5118023;27;19912;-58
2022/08/04 02:11:03;;;;;;;;;;;14.50;99.90;;;;;;5125444;27;19911;-58
2022/08/04 02:13:53;;;;;;;;;;;14.40;99.90;;;;;;5125726;27;19911;-58
2022/08/04 02:16:40;;;;;;;;;;;14.40;99.90;;;;;;5104421;27;20389;-58
2022/08/04 02:19:24;;;;;;;;;;;14.40;99.90;;;;;;5125442;27;19922;-58
2022/08/04 02:22:07;;;;;;;;;;;14.40;99.90;;;;;;5125982;27;20274;-58
2022/08/04 02:24:49;;;;;;;;;;;14.40;99.90;;;;;;5125909;27;19915;-58
2022/08/04 02:27:32;;;;;;;;;;;14.40;99.90;;;;;;5124459;27;19918;-58
2022/08/04 02:30:12;;;;;;;;;;;14.30;99.90;;;;;;5125576;27;19912;-58
2022/08/04 02:32:57;;;;;;;;;;;14.30;99.90;;;;;;5104977;27;19916;-58
2022/08/04 02:35:39;;;;;;;;;;;14.20;99.90;;;;;;5125343;27;19916;-58
2022/08/04 02:38:22;;;;;;;;;;;14.20;99.90;;;;;;5125238;27;19945;-58
2022/08/04 02:41:04;;;;;;;;;;;14.20;99.90;;;;;;5125783;27;19920;-58
2022/08/04 02:43:47;;;;;;;;;;;14.10;99.90;;;;;;5125626;27;19918;-58
2022/08/04 02:46:27;;;;;;;;;;;14.10;99.90;;;;;;5124196;27;19918;-58
2022/08/04 02:49:08;;;;;;;;;;;14.10;99.90;;;;;;5125400;27;19918;-58
2022/08/04 02:51:50;;;;;;;;;;;14.10;99.90;;;;;;5125562;27;20316;-58
2022/08/04 02:54:33;;;;;;;;;;;14.00;99.90;;;;;;5125455;27;19918;-58
2022/08/04 02:57:14;;;;;;;;;;;14.00;99.90;;;;;;5104129;27;19926;-58
2022/08/04 03:00:08;;;;;;;;;;;14.00;99.90;;;;;;5113244;27;20002;-57
2022/08/04 03:03:07;;;;;;;;;;;14.00;99.90;;;;;;5125228;27;19918;-58
2022/08/04 03:05:58;;;;;;;;;;;14.00;99.90;;;;;;5104051;27;19913;-58
2022/08/04 03:08:52;;;;;;;;;;;13.90;99.90;;;;;;5094912;27;20117;-58
2022/08/04 03:11:45;;;;;;;;;;;13.90;99.90;;;;;;5125554;27;19930;-58
2022/08/04 03:14:39;;;;;;;;;;;13.80;99.90;;;;;;5125915;27;19915;-58
2022/08/04 03:17:43;;;;;;;;;;;13.70;99.90;;;;;;5106937;27;19912;-58
2022/08/04 03:20:43;;;;;;;;;;;13.70;99.90;;;;;;5104535;27;20315;-58
2022/08/04 03:26:30;;;;;;;;;;;13.70;99.90;;;;;;5122949;27;20286;-58
2022/08/04 03:29:36;;;;;;;;;;;13.70;99.90;;;;;;5126272;27;19911;-59
2022/08/04 03:32:28;;;;;;;;;;;13.70;99.90;;;;;;5125325;27;19912;-58
2022/08/04 03:35:17;;;;;;;;;;;13.60;99.90;;;;;;5125386;27;19911;-59
2022/08/04 03:38:10;;;;;;;;;;;13.60;99.90;;;;;;5120345;27;19912;-59
2022/08/04 03:41:04;;;;;;;;;;;13.70;99.90;;;;;;5125479;27;19912;-59
2022/08/04 03:44:00;;;;;;;;;;;13.70;99.90;;;;;;5125776;27;20072;-59
2022/08/04 03:46:51;;;;;;;;;;;13.80;99.90;;;;;;5145357;27;19911;-58
2022/08/04 03:49:43;;;;;;;;;;;13.80;99.90;;;;;;5088218;27;19927;-59
2022/08/04 03:55:44;;;;;;;;;;;13.70;99.90;;;;;;5124649;27;19915;-58
2022/08/04 03:58:47;;;;;;;;;;;13.80;99.90;;;;;;5124601;27;19911;-59
2022/08/04 04:01:35;;;;;;;;;;;13.80;99.90;;;;;;5125461;27;20280;-59
2022/08/04 04:04:32;;;;;;;;;;;13.80;99.90;;;;;;5125085;27;19916;-59
2022/08/04 04:07:26;;;;;;;;;;;13.80;99.90;;;;;;5124321;27;19919;-59
2022/08/04 04:10:15;;;;;;;;;;;13.90;99.90;;;;;;5125270;27;19942;-59
2022/08/04 04:13:07;;;;;;;;;;;14.00;99.90;;;;;;5125898;27;20093;-59
2022/08/04 04:15:51;;;;;;;;;;;14.00;99.90;;;;;;5124473;27;19912;-59
2022/08/04 04:18:38;;;;;;;;;;;14.10;99.90;;;;;;5125863;27;19911;-57
2022/08/04 04:21:25;;;;;;;;;;;14.20;99.90;;;;;;5104617;27;19916;-58
2022/08/04 04:24:23;;;;;;;;;;;14.30;99.90;;;;;;5104913;27;19916;-59
2022/08/04 04:27:08;;;;;;;;;;;14.40;99.90;;;;;;5103638;27;19958;-59
2022/08/04 04:30:05;;;;;;;;;;;14.50;99.90;;;;;;5124107;27;20415;-58
2022/08/04 04:33:01;;;;;;;;;;;14.60;99.90;;;;;;5124656;27;20542;-59
2022/08/04 04:35:46;;;;;;;;;;;14.70;99.90;;;;;;5125348;27;20284;-59
2022/08/04 04:38:34;;;;;;;;;;;14.80;99.90;;;;;;5125390;27;19918;-58
2022/08/04 04:41:21;;;;;;;;;;;15.00;99.90;;;;;;5125129;27;19911;-57
2022/08/04 04:44:13;;;;;;;;;;;15.20;99.90;;;;;;5125369;27;19911;-59
2022/08/04 04:46:58;;;;;;;;;;;15.40;99.90;;;;;;5102744;27;19912;-59
2022/08/04 04:49:43;;;;;;;;;;;15.60;99.90;;;;;;5124984;27;19920;-58
2022/08/04 04:52:26;;;;;;;;;;;15.80;99.90;;;;;;5124977;27;19916;-59
2022/08/04 04:55:10;;;;;;;;;;;16.00;99.90;;;;;;5125398;27;20374;-59
2022/08/04 04:58:03;;;;;;;;;;;16.60;99.90;;;;;;5124563;27;20288;-57
2022/08/04 05:01:00;;;;;;;;;;;17.40;99.90;;;;;;5125470;27;19918;-59
2022/08/04 05:03:48;;;;;;;;;;;18.40;99.90;;;;;;5146436;27;19915;-58
2022/08/04 05:06:41;;;;;;;;;;;19.50;99.90;;;;;;5118564;27;19918;-56
2022/08/04 05:09:30;;;;;;;;;;;20.40;99.90;;;;;;5108448;27;19918;-59
2022/08/04 05:12:25;;;;;;;;;;;21.00;99.90;;;;;;5122400;27;19911;-60
2022/08/04 05:15:07;;;;;;;;;;;21.50;99.90;;;;;;5124947;27;19916;-59
2022/08/04 05:17:49;;;;;;;;;;;22.00;99.90;;;;;;5120782;27;19911;-59
2022/08/04 05:20:34;;;;;;;;;;;22.50;99.90;;;;;;5124931;27;19961;-58
2022/08/04 05:23:17;;;;;;;;;;;22.70;99.90;;;;;;5084551;28;19913;-59
2022/08/04 05:25:59;;;;;;;;;;;22.40;99.90;;;;;;5104180;27;19926;-59
2022/08/04 05:28:40;;;;;;;;;;;21.70;99.90;;;;;;5114995;27;19920;-58
2022/08/04 05:31:23;;;;;;;;;;;21.40;99.90;;;;;;5105157;27;19916;-59
2022/08/04 05:34:12;;;;;;;;;;;21.30;99.90;;;;;;5125082;27;21140;-59
2022/08/04 05:36:55;;;;;;;;;;;21.00;99.90;;;;;;5105616;27;20306;-60
2022/08/04 05:39:38;;;;;;;;;;;20.90;99.90;;;;;;5106020;27;19918;-59
2022/08/04 05:42:21;;;;;;;;;;;20.70;99.90;;;;;;5125563;27;19920;-56
2022/08/04 05:45:03;;;;;;;;;;;20.60;99.90;;;;;;5124807;27;19916;-59
2022/08/04 05:47:55;;;;;;;;;;;20.70;99.90;;;;;;5124288;27;19926;-57
2022/08/04 05:50:35;;;;;;;;;;;20.70;99.90;;;;;;5124884;27;19922;-59
2022/08/04 05:53:15;;;;;;;;;;;20.80;99.90;;;;;;5105205;27;20373;-59
2022/08/04 05:55:57;;;;;;;;;;;21.00;99.90;;;;;;5124320;27;19912;-59
2022/08/04 05:58:39;;;;;;;;;;;21.10;99.90;;;;;;5115332;27;20292;-59
2022/08/04 06:01:20;;;;;;;;;;;21.20;99.90;;;;;;5124946;27;19916;-59
2022/08/04 06:04:01;;;;;;;;;;;21.40;99.90;;;;;;5104755;27;19916;-59
2022/08/04 06:06:42;;;;;;;;;;;21.70;99.90;;;;;;5125078;27;19912;-59
2022/08/04 06:09:22;;;;;;;;;;;21.90;99.90;;;;;;5109284;27;19912;-59
2022/08/04 06:12:03;;;;;;;;;;;22.20;99.90;;;;;;5103753;27;19916;-59
2022/08/04 06:14:44;;;;;;;;;;;22.40;99.90;;;;;;5120562;27;19951;-58
2022/08/04 06:17:28;;;;;;;;;;;22.60;99.90;;;;;;5124379;27;20407;-59
2022/08/04 06:20:10;;;;;;;;;;;22.70;99.90;;;;;;5104510;27;19946;-59
2022/08/04 06:22:52;;;;;;;;;;;22.90;99.90;;;;;;5125086;27;19938;-57
2022/08/04 06:25:36;;;;;;;;;;;22.90;99.90;;;;;;5104576;27;20427;-58
2022/08/04 06:28:17;;;;;;;;;;;23.00;99.90;;;;;;5096483;27;20328;-60
2022/08/04 06:31:01;;;;;;;;;;;23.10;99.90;;;;;;5123682;27;19912;-59
2022/08/04 06:33:42;;;;;;;;;;;23.20;99.90;;;;;;5101340;27;19927;-59
2022/08/04 06:36:22;;;;;;;;;;;23.40;99.90;;;;;;5113192;27;19926;-60
2022/08/04 06:39:02;;;;;;;;;;;23.50;99.90;;;;;;5125388;27;20378;-59
2022/08/04 06:41:42;;;;;;;;;;;23.50;99.90;;;;;;5125434;27;19912;-59
2022/08/04 06:44:22;;;;;;;;;;;23.60;99.90;;;;;;5124521;27;19912;-59
2022/08/04 06:47:02;;;;;;;;;;;23.70;99.90;;;;;;5104390;27;19946;-59
2022/08/04 06:49:42;;;;;;;;;;;23.70;99.90;;;;;;5071548;28;19920;-60
2022/08/04 06:52:21;;;;;;;;;;;23.90;99.90;;;;;;5125071;27;19938;-59
2022/08/04 06:55:03;;;;;;;;;;;24.00;99.90;;;;;;5122915;27;20319;-59
2022/08/04 06:57:43;;;;;;;;;;;24.10;99.90;;;;;;5094239;27;19946;-59
2022/08/04 07:00:24;;;;;;;;;;;24.20;99.90;;;;;;5124342;27;19911;-59
2022/08/04 07:03:05;;;;;;;;;;;24.30;99.90;;;;;;5124945;27;19912;-60
2022/08/04 07:05:46;;;;;;;;;;;24.50;99.90;;;;;;5124819;27;19916;-58
2022/08/04 07:08:27;;;;;;;;;;;24.50;99.90;;;;;;5125390;27;19922;-59
2022/08/04 07:11:07;;;;;;;;;;;24.70;99.90;;;;;;5124774;27;19922;-59
2022/08/04 07:13:48;;;;;;;;;;;24.90;99.90;;;;;;5084865;28;19912;-59
2022/08/04 07:16:30;;;;;;;;;;;25.00;99.90;;;;;;5124565;27;20107;-59
2022/08/04 07:19:11;;;;;;;;;;;25.20;99.90;;;;;;5110996;27;19926;-57
2022/08/04 07:21:51;;;;;;;;;;;25.40;99.90;;;;;;5125652;27;19914;-59
2022/08/04 07:24:31;;;;;;;;;;;25.60;99.90;;;;;;5125499;27;19912;-60
2022/08/04 07:27:12;;;;;;;;;;;25.70;99.90;;;;;;5081525;28;19913;-59
2022/08/04 07:29:52;;;;;;;;;;;25.80;99.10;;;;;;5103452;27;19943;-59
2022/08/04 07:32:32;;;;;;;;;;;25.90;97.60;;;;;;5125294;27;19920;-59
2022/08/04 07:35:12;;;;;;;;;;;26.00;93.00;;;;;;5105081;27;19961;-59
2022/08/04 07:37:51;;;;;;;;;;;26.10;91.10;;;;;;5121307;27;19918;-59
2022/08/04 07:40:32;;;;;;;;;;;26.20;89.00;;;;;;5104773;27;20284;-59
2022/08/04 07:43:14;;;;;;;;;;;26.40;87.10;;;;;;5124881;27;19915;-59
2022/08/04 07:45:54;;;;;;;;;;;26.60;84.80;;;;;;5103372;27;19926;-59
2022/08/04 07:48:34;;;;;;;;;;;26.60;81.20;;;;;;5123210;27;19926;-59
2022/08/04 07:51:14;;;;;;;;;;;26.70;79.40;;;;;;5125911;27;19923;-59
2022/08/04 07:53:54;;;;;;;;;;;26.90;79.10;;;;;;5125721;27;19911;-59
2022/08/04 07:56:35;;;;;;;;;;;27.00;81.80;;;;;;5122791;27;19922;-60
2022/08/04 07:59:16;;;;;;;;;;;27.10;74.30;;;;;;5109620;27;19912;-59
2022/08/04 08:01:58;;;;;;;;;;;27.20;76.90;;;;;;5142664;27;20328;-59
2022/08/04 08:04:40;;;;;;;;;;;27.40;71.10;;;;;;5124119;27;19919;-59
2022/08/04 08:07:20;;;;;;;;;;;27.50;67.90;;;;;;5110681;27;19920;-60
2022/08/04 08:10:00;;;;;;;;;;;27.60;63.70;;;;;;5119296;27;19916;-59
2022/08/04 08:12:40;;;;;;;;;;;27.70;65.40;;;;;;5109945;27;19919;-59
2022/08/04 08:15:20;;;;;;;;;;;27.80;59.00;;;;;;5119814;27;19920;-58
2022/08/04 08:18:01;;;;;;;;;;;27.80;55.60;;;;;;5077288;27;19958;-59
2022/08/04 08:20:44;;;;;;;;;;;28.00;57.40;;;;;;5124117;27;20180;-60
2022/08/04 08:23:25;;;;;;;;;;;28.10;56.50;;;;;;5124847;27;19912;-59
2022/08/04 08:26:07;;;;;;;;;;;28.20;57.10;;;;;;5124441;27;20431;-58
2022/08/04 08:28:47;;;;;;;;;;;28.30;56.00;;;;;;5119846;27;19920;-60
2022/08/04 08:31:27;;;;;;;;;;;28.40;56.00;;;;;;5104395;27;20336;-59
2022/08/04 08:34:07;;;;;;;;;;;28.50;56.90;;;;;;5101486;27;19930;-59
2022/08/04 08:36:50;;;;;;;;;;;28.70;55.90;;;;;;5123937;27;19924;-59
2022/08/04 08:39:35;;;;;;;;;;;28.80;54.30;;;;;;5107335;27;19916;-59
2022/08/04 08:42:35;;;;;;;;;;;29.00;53.60;;;;;;5121791;27;19953;-59
2022/08/04 08:45:34;;;;;;;;;;;29.10;50.40;;;;;;5124979;27;19929;-59
2022/08/04 08:48:31;;;;;;;;;;;29.20;49.40;;;;;;5117375;27;20387;-59
2022/08/04 08:51:23;;;;;;;;;;;29.30;49.90;;;;;;5125626;27;19926;-59
2022/08/04 08:54:20;;;;;;;;;;;29.50;47.50;;;;;;5125560;27;19912;-60
2022/08/04 08:57:10;;;;;;;;;;;29.50;50.20;;;;;;5125151;27;19918;-59
2022/08/04 09:00:01;;;;;;;;;;;29.60;45.80;;;;;;5125564;27;19933;-59
2022/08/04 09:02:59;;;;;;;;;;;29.60;48.00;;;;;;5124243;27;20413;-59
2022/08/04 09:06:02;;;;;;;;;;;29.80;46.00;;;;;;5134694;27;19918;-59
2022/08/04 09:09:00;;;;;;;;;;;29.90;45.20;;;;;;5118155;27;20403;-59
2022/08/04 09:11:43;;;;;;;;;;;29.90;43.70;;;;;;5124522;27;19911;-59
2022/08/04 09:14:26;;;;;;;;;;;30.00;43.40;;;;;;5118234;27;19920;-59
2022/08/04 09:17:06;;;;;;;;;;;30.10;43.40;;;;;;5099466;27;19965;-59
2022/08/04 09:19:51;;;;;;;;;;;30.20;43.60;;;;;;5097216;27;19934;-59
2022/08/04 09:22:34;;;;;;;;;;;30.20;42.60;;;;;;5125597;27;19911;-59
2022/08/04 09:25:20;;;;;;;;;;;30.30;43.60;;;;;;5124580;27;19922;-58
2022/08/04 09:28:04;;;;;;;;;;;30.50;46.40;;;;;;5125614;27;19912;-58
2022/08/04 09:30:47;;;;;;;;;;;30.60;42.70;;;;;;5125811;27;19919;-58
2022/08/04 09:33:42;;;;;;;;;;;30.70;43.40;;;;;;5106471;27;19912;-60
2022/08/04 09:36:28;;;;;;;;;;;30.70;42.20;;;;;;5103982;27;19912;-60
2022/08/04 09:39:11;;;;;;;;;;;30.70;43.90;;;;;;5125503;27;19919;-60
2022/08/04 09:42:03;;;;;;;;;;;30.80;40.10;;;;;;5125900;27;19918;-58
2022/08/04 09:44:48;;;;;;;;;;;30.80;39.40;;;;;;5125591;27;19915;-58
2022/08/04 09:47:32;;;;;;;;;;;30.90;41.70;;;;;;5124636;27;20190;-58
2022/08/04 09:50:16;;;;;;;;;;;30.90;39.60;;;;;;5125861;27;19912;-58
2022/08/04 09:52:59;;;;;;;;;;;30.90;40.30;;;;;;5121798;27;19916;-60
2022/08/04 09:55:46;;;;;;;;;;;31.10;40.40;;;;;;5134717;27;20431;-60
2022/08/04 09:58:38;;;;;;;;;;;31.40;39.50;;;;;;5100026;27;19930;-59
2022/08/04 10:01:19;;;;;;;;;;;31.40;35.80;;;;;;5124203;27;19911;-60
2022/08/04 10:04:01;;;;;;;;;;;31.60;34.50;;;;;;5121571;27;19955;-59
2022/08/04 10:06:54;;;;;;;;;;;31.60;34.10;;;;;;5122692;27;19912;-58
2022/08/04 10:09:43;;;;;;;;;;;31.50;33.40;;;;;;5116519;27;19916;-58
2022/08/04 10:12:30;;;;;;;;;;;31.40;33.70;;;;;;5112578;27;20278;-59
2022/08/04 10:15:12;;;;;;;;;;;31.60;34.30;;;;;;5124588;27;19926;-57
2022/08/04 10:18:03;;;;;;;;;;;31.90;33.60;;;;;;5099929;27;19953;-59
2022/08/04 10:20:48;;;;;;;;;;;32.10;32.80;;;;;;5105144;27;19918;-58
2022/08/04 10:23:40;;;;;;;;;;;32.10;32.20;;;;;;5125818;27;19912;-58
2022/08/04 10:26:25;;;;;;;;;;;32.20;33.20;;;;;;5124490;27;19919;-59
2022/08/04 10:29:08;;;;;;;;;;;32.10;33.00;;;;;;5125559;27;20411;-59
2022/08/04 10:31:57;;;;;;;;;;;32.00;32.70;;;;;;5125149;27;20292;-58
2022/08/04 10:34:40;;;;;;;;;;;32.00;33.10;;;;;;5124695;27;20292;-59
2022/08/04 10:37:23;;;;;;;;;;;31.90;33.30;;;;;;5099021;27;19934;-59
2022/08/04 10:43:07;;;;;;;;;;;31.70;33.60;;;;;;5080910;28;19920;-60
2022/08/04 10:45:50;;;;;;;;;;;31.90;33.40;;;;;;5123632;27;19919;-57
2022/08/04 10:48:36;;;;;;;;;;;32.00;32.60;;;;;;5095413;27;19921;-58
2022/08/04 10:51:24;;;;;;;;;;;31.90;32.80;;;;;;5125362;27;19911;-59
2022/08/04 10:54:07;;;;;;;;;;;31.80;33.10;;;;;;5125806;27;19912;-61
2022/08/04 10:56:52;;;;;;;;;;;31.80;32.80;;;;;;5124600;27;19912;-59
2022/08/04 10:59:38;;;;;;;;;;;31.90;33.30;;;;;;5107824;27;20294;-60
2022/08/04 11:02:27;;;;;;;;;;;32.00;32.20;;;;;;5078598;28;20329;-60
2022/08/04 11:05:10;;;;;;;;;;;32.00;34.30;;;;;;5119585;27;20507;-58
2022/08/04 11:07:53;;;;;;;;;;;32.10;33.00;;;;;;5117223;27;19923;-58
2022/08/04 11:10:35;;;;;;;;;;;32.20;32.50;;;;;;5120448;27;19916;-57
2022/08/04 11:13:17;;;;;;;;;;;32.40;35.20;;;;;;5123058;27;19916;-57
2022/08/04 11:15:59;;;;;;;;;;;32.40;34.10;;;;;;5123991;27;19922;-58
2022/08/04 11:18:45;;;;;;;;;;;32.60;32.40;;;;;;5117560;27;19926;-56
2022/08/04 11:21:28;;;;;;;;;;;32.60;32.10;;;;;;5109145;27;19916;-57
2022/08/04 11:24:11;;;;;;;;;;;32.50;31.50;;;;;;5125530;27;19919;-59
2022/08/04 11:27:01;;;;;;;;;;;32.60;32.90;;;;;;5112681;27;19916;-57
2022/08/04 11:29:49;;;;;;;;;;;32.60;31.30;;;;;;5088171;27;20522;-59
2022/08/04 11:32:34;;;;;;;;;;;32.60;30.50;;;;;;5120739;27;20416;-60
2022/08/04 11:35:19;;;;;;;;;;;32.50;31.80;;;;;;5119167;27;19922;-58
2022/08/04 11:38:08;;;;;;;;;;;32.60;31.60;;;;;;5114673;27;19916;-58
2022/08/04 11:40:51;;;;;;;;;;;32.70;31.20;;;;;;5110343;27;19920;-58
2022/08/04 11:43:36;;;;;;;;;;;32.60;30.00;;;;;;5121248;27;20585;-57
2022/08/04 11:46:20;;;;;;;;;;;32.70;33.30;;;;;;5103999;27;19953;-58
2022/08/04 11:49:05;;;;;;;;;;;32.80;31.40;;;;;;5111852;27;19919;-57
2022/08/04 11:51:46;;;;;;;;;;;32.80;30.40;;;;;;5089541;27;19931;-58
2022/08/04 11:54:27;;;;;;;;;;;32.80;31.00;;;;;;5125275;27;19915;-58
2022/08/04 11:57:10;;;;;;;;;;;32.90;29.90;;;;;;5120895;27;19930;-56
2022/08/04 11:59:53;;;;;;;;;;;32.90;31.10;;;;;;5074256;28;19916;-58
2022/08/04 12:02:52;;;;;;;;;;;32.90;29.80;;;;;;5119077;27;19922;-60
2022/08/04 12:05:33;;;;;;;;;;;32.90;30.30;;;;;;5112179;27;19920;-60
2022/08/04 12:08:21;;;;;;;;;;;32.90;30.00;;;;;;5112018;27;19920;-57
2022/08/04 12:11:09;;;;;;;;;;;32.90;30.60;;;;;;5117346;27;20339;-58
2022/08/04 12:13:52;;;;;;;;;;;32.80;30.70;;;;;;5074064;27;19934;-58
2022/08/04 12:16:36;;;;;;;;;;;32.70;29.30;;;;;;5123662;27;19912;-59
2022/08/04 12:19:24;;;;;;;;;;;32.70;29.70;;;;;;5107367;27;19927;-59
2022/08/04 12:22:08;;;;;;;;;;;32.70;33.50;;;;;;5111664;27;19920;-59
2022/08/04 12:24:51;;;;;;;;;;;32.90;31.10;;;;;;5136691;27;19920;-57
2022/08/04 12:27:33;;;;;;;;;;;32.90;30.50;;;;;;5138241;27;19920;-59
2022/08/04 12:30:14;;;;;;;;;;;33.20;30.30;;;;;;5124714;27;21142;-59
2022/08/04 12:32:59;;;;;;;;;;;33.30;30.10;;;;;;5121201;27;19919;-58
2022/08/04 12:35:44;;;;;;;;;;;33.30;29.10;;;;;;5133538;27;19916;-58
2022/08/04 12:38:27;;;;;;;;;;;33.30;31.10;;;;;;5112543;27;19927;-59
2022/08/04 12:41:08;;;;;;;;;;;33.30;30.10;;;;;;5122833;27;20397;-58
2022/08/04 12:43:49;;;;;;;;;;;33.30;31.30;;;;;;5124893;27;19920;-58
2022/08/04 12:46:30;;;;;;;;;;;33.50;32.60;;;;;;5123746;27;19918;-61
2022/08/04 12:49:12;;;;;;;;;;;33.60;32.80;;;;;;5090658;27;19970;-57
2022/08/04 12:51:54;;;;;;;;;;;33.60;28.40;;;;;;5123081;27;19915;-59
2022/08/04 12:54:35;;;;;;;;;;;33.60;30.30;;;;;;5104049;27;19927;-59
2022/08/04 12:57:16;;;;;;;;;;;33.70;30.70;;;;;;5097531;27;19930;-58
2022/08/04 12:59:56;;;;;;;;;;;33.90;29.30;;;;;;5119457;27;19912;-58
2022/08/04 13:02:40;;;;;;;;;;;33.80;27.50;;;;;;5122514;27;19916;-59
2022/08/04 13:05:21;;;;;;;;;;;33.70;31.20;;;;;;5124614;27;20385;-59
2022/08/04 13:08:03;;;;;;;;;;;33.70;30.80;;;;;;5099568;27;19916;-60
2022/08/04 13:10:45;;;;;;;;;;;33.80;27.80;;;;;;5105461;27;20123;-60
2022/08/04 13:13:27;;;;;;;;;;;33.80;28.80;;;;;;5125135;27;19912;-57
2022/08/04 13:16:08;;;;;;;;;;;33.90;28.40;;;;;;5104187;27;19912;-58
2022/08/04 13:18:49;;;;;;;;;;;34.00;27.40;;;;;;5114107;27;20443;-58
2022/08/04 13:21:30;;;;;;;;;;;33.80;28.60;;;;;;5125626;27;19918;-57
2022/08/04 13:24:12;;;;;;;;;;;33.70;28.70;;;;;;5125762;27;19919;-58
2022/08/04 13:26:56;;;;;;;;;;;33.80;28.70;;;;;;5124964;27;19912;-59
2022/08/04 13:29:39;;;;;;;;;;;33.90;29.60;;;;;;5087221;27;19912;-56
2022/08/04 13:32:21;;;;;;;;;;;34.00;28.10;;;;;;5125673;27;19916;-58
2022/08/04 13:35:03;;;;;;;;;;;34.00;29.90;;;;;;5125586;27;19916;-58
2022/08/04 13:37:43;;;;;;;;;;;34.20;27.70;;;;;;5124789;27;20280;-59
2022/08/04 13:40:24;;;;;;;;;;;34.20;27.00;;;;;;5125423;27;19912;-59
2022/08/04 13:43:24;;;;;;;;;;;34.20;29.00;;;;;;5125098;27;19916;-56
2022/08/04 13:46:05;;;;;;;;;;;34.20;26.00;;;;;;5124885;27;19916;-58
2022/08/04 13:48:46;;;;;;;;;;;34.10;27.60;;;;;;5114382;27;19912;-59
2022/08/04 13:51:27;;;;;;;;;;;34.10;26.70;;;;;;5125365;27;19966;-57
2022/08/04 13:54:08;;;;;;;;;;;34.10;26.10;;;;;;5104969;27;19926;-57
2022/08/04 13:56:50;;;;;;;;;;;34.10;28.50;;;;;;5124947;27;19912;-59
2022/08/04 13:59:33;;;;;;;;;;;34.20;28.60;;;;;;5088138;27;20535;-60
2022/08/04 14:02:31;;;;;;;;;;;34.30;28.30;;;;;;5104740;27;20478;-59
2022/08/04 14:05:15;;;;;;;;;;;34.40;26.70;;;;;;5108739;27;19918;-58
2022/08/04 14:07:57;;;;;;;;;;;34.30;26.30;;;;;;5120599;27;19912;-57
2022/08/04 14:10:39;;;;;;;;;;;34.20;26.50;;;;;;5125503;27;19912;-59
2022/08/04 14:13:28;;;;;;;;;;;34.10;26.80;;;;;;5104811;27;19926;-58
2022/08/04 14:16:15;;;;;;;;;;;34.10;29.90;;;;;;5124645;27;19916;-59
2022/08/04 14:18:59;;;;;;;;;;;34.10;27.40;;;;;;5092669;27;19926;-58
2022/08/04 14:21:39;;;;;;;;;;;34.30;27.80;;;;;;5146192;27;19918;-57
2022/08/04 14:24:24;;;;;;;;;;;34.30;27.60;;;;;;5125150;27;19911;-60
2022/08/04 14:27:04;;;;;;;;;;;34.40;27.30;;;;;;5120099;27;19926;-58
2022/08/04 14:29:45;;;;;;;;;;;34.50;29.20;;;;;;5104910;27;19926;-58
2022/08/04 14:32:25;;;;;;;;;;;34.50;28.10;;;;;;5123102;27;19911;-59
2022/08/04 14:35:11;;;;;;;;;;;34.50;28.10;;;;;;5103271;27;19969;-57
2022/08/04 14:37:55;;;;;;;;;;;34.50;28.90;;;;;;5123712;27;19918;-58
2022/08/04 14:40:37;;;;;;;;;;;34.60;28.50;;;;;;5104367;27;19921;-58
2022/08/04 14:43:18;;;;;;;;;;;34.80;26.50;;;;;;5124239;27;19918;-58
2022/08/04 14:46:05;;;;;;;;;;;34.80;27.50;;;;;;5103212;27;19916;-57
2022/08/04 14:49:01;;;;;;;;;;;34.70;26.00;;;;;;5113718;27;19912;-57
2022/08/04 14:51:42;;;;;;;;;;;34.60;26.40;;;;;;5145588;27;19926;-55
2022/08/04 14:54:28;;;;;;;;;;;34.60;26.40;;;;;;5124378;27;19912;-57
2022/08/04 14:57:08;;;;;;;;;;;34.70;26.00;;;;;;5123874;27;19915;-57
2022/08/04 14:59:49;;;;;;;;;;;34.70;30.40;;;;;;5124422;27;19922;-57
2022/08/04 15:02:30;;;;;;;;;;;34.90;27.70;;;;;;5125233;27;19911;-57
2022/08/04 15:05:10;;;;;;;;;;;35.00;26.90;;;;;;5089148;27;20307;-56
2022/08/04 15:07:51;;;;;;;;;;;35.00;26.20;;;;;;5121537;27;20294;-59
2022/08/04 15:10:33;;;;;;;;;;;34.90;30.90;;;;;;5125589;27;19912;-60
2022/08/04 15:13:14;;;;;;;;;;;35.00;26.80;;;;;;5125845;27;19912;-60
2022/08/04 15:15:54;;;;;;;;;;;35.10;26.90;;;;;;5124384;27;19925;-57
2022/08/04 15:18:34;;;;;;;;;;;35.20;27.80;;;;;;5115292;27;19919;-58
2022/08/04 15:21:15;;;;;;;;;;;35.30;28.10;;;;;;5125353;27;20381;-59
2022/08/04 15:23:55;;;;;;;;;;;35.40;26.40;;;;;;5125690;27;19916;-59
2022/08/04 15:26:38;;;;;;;;;;;35.30;27.40;;;;;;5125049;27;19912;-58
2022/08/04 15:29:23;;;;;;;;;;;35.20;25.90;;;;;;5148809;22;19959;-57
2022/08/04 15:32:04;;;;;;;;;;;35.30;26.20;;;;;;5125689;27;20175;-59
2022/08/04 15:34:47;;;;;;;;;;;35.20;28.10;;;;;;5125535;27;19918;-57
2022/08/04 15:37:31;;;;;;;;;;;35.30;26.40;;;;;;5124664;27;19919;-55
2022/08/04 15:40:13;;;;;;;;;;;35.30;27.90;;;;;;5125108;27;19918;-57
2022/08/04 15:43:04;;;;;;;;;;;35.30;27.00;;;;;;5125583;27;19921;-56
2022/08/04 15:45:50;;;;;;;;;;;35.30;28.70;;;;;;5104824;27;19923;-63
2022/08/04 15:48:30;;;;;;;;;;;35.60;26.40;;;;;;5098940;27;19962;-57
2022/08/04 15:51:11;;;;;;;;;;;36.90;26.10;;;;;;5104875;27;19912;-57
2022/08/04 15:54:18;;;;;;;;;;;38.30;25.10;;;;;;5104907;27;19912;-60
2022/08/04 15:56:58;;;;;;;;;;;39.20;24.40;;;;;;5124586;27;19912;-55
2022/08/04 15:59:55;;;;;;;;;;;40.00;24.10;;;;;;5089938;27;20367;-58
2022/08/04 16:02:43;;;;;;;;;;;40.50;23.10;;;;;;5125323;27;20299;-58
2022/08/04 16:05:41;;;;;;;;;;;40.80;23.00;;;;;;5127324;27;19918;-56
2022/08/04 16:08:21;;;;;;;;;;;40.80;20.90;;;;;;5120403;27;19916;-56